sensor_id;sensor_type;location;lat;lon;timestamp;temperature;humidity
18930;DHT22;43305;52.186;5.598;2022-11-25T00:01:40;8.40;99.90
18930;DHT22;43305;52.186;5.598;2022-11-25T00:04:13;8.50;99.90
18930;DHT22;43305;52.186;5.598;2022-11-25T00:06:42;8.40;99.90
18930;DHT22;43305;52.186;5.598;2022-11-25T00:09:15;8.40;99.90
18930;DHT22;43305;52.186;5.598;2022-11-25T00:11:50;8.30;99.90
18930;DHT22;43305;52.186;5.598;2022-11-25T00:14:20;8.30;99.90
18930;DHT22;43305;52.186;5.598;2022-11-25T00:16:50;8.30;99.90
18930;DHT22;43305;52.186;5.598;2022-11-25T00:19:19;8.20;99.90
18930;DHT22;43305;52.186;5.598;2022-11-25T00:21:48;8.20;99.90
18930;DHT22;43305;52.186;5.598;2022-11-25T00:24:16;8.20;99.90
18930;DHT22;43305;52.186;5.598;2022-11-25T00:26:49;8.20;99.90
18930;DHT22;43305;52.186;5.598;2022-11-25T00:29:16;8.10;99.90
18930;DHT22;43305;52.186;5.598;2022-11-25T00:31:43;8.10;99.90
18930;DHT22;43305;52.186;5.598;2022-11-25T00:34:21;8.10;99.90
18930;DHT22;43305;52.186;5.598;2022-11-25T00:36:52;8.10;99.90
18930;DHT22;43305;52.186;5.598;2022-11-25T00:39:21;8.10;99.90
18930;DHT22;43305;52.186;5.598;2022-11-25T00:41:51;8.10;99.90
18930;DHT22;43305;52.186;5.598;2022-11-25T00:44:32;8.10;99.90
18930;DHT22;43305;52.186;5.598;2022-11-25T00:47:05;8.10;99.90
18930;DHT22;43305;52.186;5.598;2022-11-25T00:49:39;8.10;99.90
18930;DHT22;43305;52.186;5.598;2022-11-25T00:52:13;8.10;99.90
18930;DHT22;43305;52.186;5.598;2022-11-25T00:54:47;8.10;99.90
18930;DHT22;43305;52.186;5.598;2022-11-25T00:57:15;8.10;99.90
18930;DHT22;43305;52.186;5.598;2022-11-25T00:59:46;8.10;99.90
18930;DHT22;43305;52.186;5.598;2022-11-25T01:02:15;8.10;99.90
18930;DHT22;43305;52.186;5.598;2022-11-25T01:04:42;8.10;99.90
18930;DHT22;43305;52.186;5.598;2022-11-25T01:07:10;8.10;99.90
18930;DHT22;43305;52.186;5.598;2022-11-25T01:09:37;8.10;99.90
18930;DHT22;43305;52.186;5.598;2022-11-25T01:12:09;8.10;99.90
18930;DHT22;43305;52.186;5.598;2022-11-25T01:14:36;8.10;99.90
18930;DHT22;43305;52.186;5.598;2022-11-25T01:17:07;8.10;99.90
18930;DHT22;43305;52.186;5.598;2022-11-25T01:19:36;8.10;99.90
18930;DHT22;43305;52.186;5.598;2022-11-25T01:22:07;8.10;99.90
18930;DHT22;43305;52.186;5.598;2022-11-25T01:24:34;8.20;99.90
18930;DHT22;43305;52.186;5.598;2022-11-25T01:27:01;8.20;99.90
18930;DHT22;43305;52.186;5.598;2022-11-25T01:29:31;8.20;99.90
18930;DHT22;43305;52.186;5.598;2022-11-25T01:32:05;8.20;99.90
18930;DHT22;43305;52.186;5.598;2022-11-25T01:34:32;8.20;99.90
18930;DHT22;43305;52.186;5.598;2022-11-25T01:36:59;8.30;99.90
18930;DHT22;43305;52.186;5.598;2022-11-25T01:39:31;8.30;99.90
18930;DHT22;43305;52.186;5.598;2022-11-25T01:41:58;8.30;99.90
18930;DHT22;43305;52.186;5.598;2022-11-25T01:44:31;8.30;99.90
18930;DHT22;43305;52.186;5.598;2022-11-25T01:47:02;8.30;99.90
18930;DHT22;43305;52.186;5.598;2022-11-25T01:49:35;8.30;99.90
18930;DHT22;43305;52.186;5.598;2022-11-25T01:52:08;8.30;99.90
18930;DHT22;43305;52.186;5.598;2022-11-25T01:54:45;8.30;99.90
18930;DHT22;43305;52.186;5.598;2022-11-25T01:57:16;8.20;99.90
18930;DHT22;43305;52.186;5.598;2022-11-25T01:59:49;8.30;99.90
18930;DHT22;43305;52.186;5.598;2022-11-25T02:02:21;8.20;99.90
18930;DHT22;43305;52.186;5.598;2022-11-25T02:04:51;8.20;99.90
18930;DHT22;43305;52.186;5.598;2022-11-25T02:07:24;8.20;99.90
18930;DHT22;43305;52.186;5.598;2022-11-25T02:09:51;8.30;99.90
18930;DHT22;43305;52.186;5.598;2022-11-25T02:12:19;8.40;99.90
18930;DHT22;43305;52.186;5.598;2022-11-25T02:14:50;8.30;99.90
18930;DHT22;43305;52.186;5.598;2022-11-25T02:17:19;8.40;99.90
18930;DHT22;43305;52.186;5.598;2022-11-25T02:19:55;8.40;99.90
18930;DHT22;43305;52.186;5.598;2022-11-25T02:22:29;8.50;99.90
18930;DHT22;43305;52.186;5.598;2022-11-25T02:25:13;8.60;99.90
18930;DHT22;43305;52.186;5.598;2022-11-25T02:27:40;8.50;99.90
18930;DHT22;43305;52.186;5.598;2022-11-25T02:30:13;8.50;99.90
18930;DHT22;43305;52.186;5.598;2022-11-25T02:32:46;8.50;99.90
18930;DHT22;43305;52.186;5.598;2022-11-25T02:35:25;8.50;99.90
18930;DHT22;43305;52.186;5.598;2022-11-25T02:37:55;8.50;99.90
18930;DHT22;43305;52.186;5.598;2022-11-25T02:40:29;8.50;99.90
18930;DHT22;43305;52.186;5.598;2022-11-25T02:43:00;8.50;99.90
18930;DHT22;43305;52.186;5.598;2022-11-25T02:45:38;8.50;99.90
18930;DHT22;43305;52.186;5.598;2022-11-25T02:48:07;8.50;99.90
18930;DHT22;43305;52.186;5.598;2022-11-25T02:50:34;8.50;99.90
18930;DHT22;43305;52.186;5.598;2022-11-25T02:53:03;8.60;99.90
18930;DHT22;43305;52.186;5.598;2022-11-25T02:55:32;8.50;99.90
18930;DHT22;43305;52.186;5.598;2022-11-25T02:57:59;8.50;99.90
18930;DHT22;43305;52.186;5.598;2022-11-25T03:00:29;8.50;99.90
18930;DHT22;43305;52.186;5.598;2022-11-25T03:02:58;8.50;99.90
18930;DHT22;43305;52.186;5.598;2022-11-25T03:05:25;8.50;99.90
18930;DHT22;43305;52.186;5.598;2022-11-25T03:07:54;8.50;99.90
18930;DHT22;43305;52.186;5.598;2022-11-25T03:10:21;8.50;99.90
18930;DHT22;43305;52.186;5.598;2022-11-25T03:12:53;8.50;99.90
18930;DHT22;43305;52.186;5.598;2022-11-25T03:15:21;8.50;99.90
18930;DHT22;43305;52.186;5.598;2022-11-25T03:17:50;8.50;99.90
18930;DHT22;43305;52.186;5.598;2022-11-25T03:20:18;8.50;99.90
18930;DHT22;43305;52.186;5.598;2022-11-25T03:22:48;8.50;99.90
18930;DHT22;43305;52.186;5.598;2022-11-25T03:25:16;8.50;99.90
18930;DHT22;43305;52.186;5.598;2022-11-25T03:27:43;8.50;99.90
18930;DHT22;43305;52.186;5.598;2022-11-25T03:30:14;8.50;99.90
18930;DHT22;43305;52.186;5.598;2022-11-25T03:32:41;8.50;99.90
18930;DHT22;43305;52.186;5.598;2022-11-25T03:35:10;8.50;99.90
18930;DHT22;43305;52.186;5.598;2022-11-25T03:37:39;8.60;99.90
18930;DHT22;43305;52.186;5.598;2022-11-25T03:40:08;8.60;99.90
18930;DHT22;43305;52.186;5.598;2022-11-25T03:42:36;8.60;99.90
18930;DHT22;43305;52.186;5.598;2022-11-25T03:45:08;8.60;99.90
18930;DHT22;43305;52.186;5.598;2022-11-25T03:47:39;8.60;99.90
18930;DHT22;43305;52.186;5.598;2022-11-25T03:50:07;8.60;99.90
18930;DHT22;43305;52.186;5.598;2022-11-25T03:52:38;8.60;99.90
18930;DHT22;43305;52.186;5.598;2022-11-25T03:55:06;8.60;99.90
18930;DHT22;43305;52.186;5.598;2022-11-25T03:57:34;8.50;99.90
18930;DHT22;43305;52.186;5.598;2022-11-25T04:00:00;8.60;99.90
18930;DHT22;43305;52.186;5.598;2022-11-25T04:02:30;8.50;99.90
18930;DHT22;43305;52.186;5.598;2022-11-25T04:04:58;8.60;99.90
18930;DHT22;43305;52.186;5.598;2022-11-25T04:07:25;8.50;99.90
18930;DHT22;43305;52.186;5.598;2022-11-25T04:09:54;8.60;99.90
18930;DHT22;43305;52.186;5.598;2022-11-25T04:12:21;8.60;99.90
18930;DHT22;43305;52.186;5.598;2022-11-25T04:15:05;8.60;99.90
18930;DHT22;43305;52.186;5.598;2022-11-25T04:17:33;8.60;99.90
18930;DHT22;43305;52.186;5.598;2022-11-25T04:20:05;8.60;99.90
18930;DHT22;43305;52.186;5.598;2022-11-25T04:22:34;8.60;99.90
18930;DHT22;43305;52.186;5.598;2022-11-25T04:25:05;8.60;99.90
18930;DHT22;43305;52.186;5.598;2022-11-25T04:27:33;8.60;99.90
18930;DHT22;43305;52.186;5.598;2022-11-25T04:30:02;8.60;99.90
18930;DHT22;43305;52.186;5.598;2022-11-25T04:32:29;8.60;99.90
18930;DHT22;43305;52.186;5.598;2022-11-25T04:34:58;8.50;99.90
18930;DHT22;43305;52.186;5.598;2022-11-25T04:37:31;8.50;99.90
18930;DHT22;43305;52.186;5.598;2022-11-25T04:40:00;8.50;99.90
18930;DHT22;43305;52.186;5.598;2022-11-25T04:42:30;8.60;99.90
18930;DHT22;43305;52.186;5.598;2022-11-25T04:45:02;8.60;99.90
18930;DHT22;43305;52.186;5.598;2022-11-25T04:47:29;8.50;99.90
18930;DHT22;43305;52.186;5.598;2022-11-25T04:49:56;8.50;99.90
18930;DHT22;43305;52.186;5.598;2022-11-25T04:52:26;8.50;99.90
18930;DHT22;43305;52.186;5.598;2022-11-25T04:54:57;8.50;99.90
18930;DHT22;43305;52.186;5.598;2022-11-25T04:57:24;8.50;99.90
18930;DHT22;43305;52.186;5.598;2022-11-25T04:59:51;8.50;99.90
18930;DHT22;43305;52.186;5.598;2022-11-25T05:02:20;8.50;99.90
18930;DHT22;43305;52.186;5.598;2022-11-25T05:04:48;8.50;99.90
18930;DHT22;43305;52.186;5.598;2022-11-25T05:07:16;8.40;99.90
18930;DHT22;43305;52.186;5.598;2022-11-25T05:09:47;8.40;99.90
18930;DHT22;43305;52.186;5.598;2022-11-25T05:12:17;8.40;99.90
18930;DHT22;43305;52.186;5.598;2022-11-25T05:14:44;8.40;99.90
18930;DHT22;43305;52.186;5.598;2022-11-25T05:17:13;8.40;99.90
18930;DHT22;43305;52.186;5.598;2022-11-25T05:19:40;8.40;99.90
18930;DHT22;43305;52.186;5.598;2022-11-25T05:22:09;8.40;99.90
18930;DHT22;43305;52.186;5.598;2022-11-25T05:24:36;8.40;99.90
18930;DHT22;43305;52.186;5.598;2022-11-25T05:27:03;8.30;99.90
18930;DHT22;43305;52.186;5.598;2022-11-25T05:29:31;8.30;99.90
18930;DHT22;43305;52.186;5.598;2022-11-25T05:31:57;8.30;99.90
18930;DHT22;43305;52.186;5.598;2022-11-25T05:34:26;8.40;99.90
18930;DHT22;43305;52.186;5.598;2022-11-25T05:36:58;8.30;99.90
18930;DHT22;43305;52.186;5.598;2022-11-25T05:39:28;8.30;99.90
18930;DHT22;43305;52.186;5.598;2022-11-25T05:41:55;8.30;99.90
18930;DHT22;43305;52.186;5.598;2022-11-25T05:44:21;8.30;99.90
18930;DHT22;43305;52.186;5.598;2022-11-25T05:46:50;8.30;99.90
18930;DHT22;43305;52.186;5.598;2022-11-25T05:49:17;8.20;99.90
18930;DHT22;43305;52.186;5.598;2022-11-25T05:51:44;8.20;99.90
18930;DHT22;43305;52.186;5.598;2022-11-25T05:54:12;8.20;99.90
18930;DHT22;43305;52.186;5.598;2022-11-25T05:56:39;8.20;99.90
18930;DHT22;43305;52.186;5.598;2022-11-25T05:59:06;8.20;99.90
18930;DHT22;43305;52.186;5.598;2022-11-25T06:01:33;8.10;99.90
18930;DHT22;43305;52.186;5.598;2022-11-25T06:04:03;8.10;99.90
18930;DHT22;43305;52.186;5.598;2022-11-25T06:06:30;8.00;99.90
18930;DHT22;43305;52.186;5.598;2022-11-25T06:08:57;8.10;99.90
18930;DHT22;43305;52.186;5.598;2022-11-25T06:11:24;8.10;99.90
18930;DHT22;43305;52.186;5.598;2022-11-25T06:13:51;8.10;99.90
18930;DHT22;43305;52.186;5.598;2022-11-25T06:16:29;8.00;99.90
18930;DHT22;43305;52.186;5.598;2022-11-25T06:18:56;8.00;99.90
18930;DHT22;43305;52.186;5.598;2022-11-25T06:21:24;8.00;99.90
18930;DHT22;43305;52.186;5.598;2022-11-25T06:23:50;8.00;99.90
18930;DHT22;43305;52.186;5.598;2022-11-25T06:26:19;7.90;99.90
18930;DHT22;43305;52.186;5.598;2022-11-25T06:28:46;7.90;99.90
18930;DHT22;43305;52.186;5.598;2022-11-25T06:31:16;7.90;99.90
18930;DHT22;43305;52.186;5.598;2022-11-25T06:33:45;8.00;99.90
18930;DHT22;43305;52.186;5.598;2022-11-25T06:36:12;8.00;99.90
18930;DHT22;43305;52.186;5.598;2022-11-25T06:38:43;8.00;99.90
18930;DHT22;43305;52.186;5.598;2022-11-25T06:41:10;7.90;99.90
18930;DHT22;43305;52.186;5.598;2022-11-25T06:43:36;7.90;99.90
18930;DHT22;43305;52.186;5.598;2022-11-25T06:46:04;7.90;99.90
18930;DHT22;43305;52.186;5.598;2022-11-25T06:48:32;7.90;99.90
18930;DHT22;43305;52.186;5.598;2022-11-25T06:51:00;7.80;99.90
18930;DHT22;43305;52.186;5.598;2022-11-25T06:53:28;7.80;99.90
18930;DHT22;43305;52.186;5.598;2022-11-25T06:56:06;7.80;99.90
18930;DHT22;43305;52.186;5.598;2022-11-25T06:58:34;7.80;99.90
18930;DHT22;43305;52.186;5.598;2022-11-25T07:01:02;7.70;99.90
18930;DHT22;43305;52.186;5.598;2022-11-25T07:03:29;7.70;99.90
18930;DHT22;43305;52.186;5.598;2022-11-25T07:05:56;7.70;99.90
18930;DHT22;43305;52.186;5.598;2022-11-25T07:08:23;7.70;99.90
18930;DHT22;43305;52.186;5.598;2022-11-25T07:10:50;7.70;99.90
18930;DHT22;43305;52.186;5.598;2022-11-25T07:13:19;7.70;99.90
18930;DHT22;43305;52.186;5.598;2022-11-25T07:15:46;7.60;99.90
18930;DHT22;43305;52.186;5.598;2022-11-25T07:18:13;7.60;99.90
18930;DHT22;43305;52.186;5.598;2022-11-25T07:20:40;7.60;99.90
18930;DHT22;43305;52.186;5.598;2022-11-25T07:23:07;7.60;99.90
18930;DHT22;43305;52.186;5.598;2022-11-25T07:25:33;7.60;99.90
18930;DHT22;43305;52.186;5.598;2022-11-25T07:28:00;7.60;99.90
18930;DHT22;43305;52.186;5.598;2022-11-25T07:30:28;7.50;99.90
18930;DHT22;43305;52.186;5.598;2022-11-25T07:32:55;7.50;99.90
18930;DHT22;43305;52.186;5.598;2022-11-25T07:35:25;7.50;99.90
18930;DHT22;43305;52.186;5.598;2022-11-25T07:37:51;7.50;99.90
18930;DHT22;43305;52.186;5.598;2022-11-25T07:40:19;7.50;99.90
18930;DHT22;43305;52.186;5.598;2022-11-25T07:42:45;7.50;99.90
18930;DHT22;43305;52.186;5.598;2022-11-25T07:45:12;7.50;99.90
18930;DHT22;43305;52.186;5.598;2022-11-25T07:47:40;7.40;99.90
18930;DHT22;43305;52.186;5.598;2022-11-25T07:50:07;7.40;99.90
18930;DHT22;43305;52.186;5.598;2022-11-25T07:52:38;7.40;99.90
18930;DHT22;43305;52.186;5.598;2022-11-25T07:55:06;7.40;99.90
18930;DHT22;43305;52.186;5.598;2022-11-25T07:57:33;7.40;99.90
18930;DHT22;43305;52.186;5.598;2022-11-25T08:00:03;7.40;99.90
18930;DHT22;43305;52.186;5.598;2022-11-25T08:02:30;7.40;99.90
18930;DHT22;43305;52.186;5.598;2022-11-25T08:04:58;7.40;99.90
18930;DHT22;43305;52.186;5.598;2022-11-25T08:07:27;7.40;99.90
18930;DHT22;43305;52.186;5.598;2022-11-25T08:09:53;7.40;99.90
18930;DHT22;43305;52.186;5.598;2022-11-25T08:12:20;7.40;99.90
18930;DHT22;43305;52.186;5.598;2022-11-25T08:14:47;7.50;99.90
18930;DHT22;43305;52.186;5.598;2022-11-25T08:17:16;7.40;99.90
18930;DHT22;43305;52.186;5.598;2022-11-25T08:19:42;7.50;99.90
18930;DHT22;43305;52.186;5.598;2022-11-25T08:22:11;7.50;99.90
18930;DHT22;43305;52.186;5.598;2022-11-25T08:24:37;7.50;99.90
18930;DHT22;43305;52.186;5.598;2022-11-25T08:27:04;7.50;99.90
18930;DHT22;43305;52.186;5.598;2022-11-25T08:29:31;7.60;99.90
18930;DHT22;43305;52.186;5.598;2022-11-25T08:31:58;7.60;99.90
18930;DHT22;43305;52.186;5.598;2022-11-25T08:34:24;7.60;99.90
18930;DHT22;43305;52.186;5.598;2022-11-25T08:36:51;7.60;99.90
18930;DHT22;43305;52.186;5.598;2022-11-25T08:39:20;7.70;99.90
18930;DHT22;43305;52.186;5.598;2022-11-25T08:41:47;7.70;99.90
18930;DHT22;43305;52.186;5.598;2022-11-25T08:44:14;7.80;99.90
18930;DHT22;43305;52.186;5.598;2022-11-25T08:46:42;7.90;99.90
18930;DHT22;43305;52.186;5.598;2022-11-25T08:49:10;7.90;99.90
18930;DHT22;43305;52.186;5.598;2022-11-25T08:51:38;8.00;99.90
18930;DHT22;43305;52.186;5.598;2022-11-25T08:54:07;8.10;99.90
18930;DHT22;43305;52.186;5.598;2022-11-25T08:56:35;8.10;99.90
18930;DHT22;43305;52.186;5.598;2022-11-25T08:59:02;8.30;99.90
18930;DHT22;43305;52.186;5.598;2022-11-25T09:01:29;8.40;99.90
18930;DHT22;43305;52.186;5.598;2022-11-25T09:03:57;8.50;99.90
18930;DHT22;43305;52.186;5.598;2022-11-25T09:06:25;8.60;99.90
18930;DHT22;43305;52.186;5.598;2022-11-25T09:08:54;8.80;99.90
18930;DHT22;43305;52.186;5.598;2022-11-25T09:11:22;8.90;99.90
18930;DHT22;43305;52.186;5.598;2022-11-25T09:13:50;9.10;99.90
18930;DHT22;43305;52.186;5.598;2022-11-25T09:16:16;9.20;99.90
18930;DHT22;43305;52.186;5.598;2022-11-25T09:18:43;9.30;99.90
18930;DHT22;43305;52.186;5.598;2022-11-25T09:21:11;9.40;99.90
18930;DHT22;43305;52.186;5.598;2022-11-25T09:23:39;9.40;99.90
18930;DHT22;43305;52.186;5.598;2022-11-25T09:26:07;9.50;99.90
18930;DHT22;43305;52.186;5.598;2022-11-25T09:28:41;9.60;99.90
18930;DHT22;43305;52.186;5.598;2022-11-25T09:31:11;9.80;99.90
18930;DHT22;43305;52.186;5.598;2022-11-25T09:33:38;9.70;99.90
18930;DHT22;43305;52.186;5.598;2022-11-25T09:36:05;9.80;99.90
18930;DHT22;43305;52.186;5.598;2022-11-25T09:38:33;9.80;99.90
18930;DHT22;43305;52.186;5.598;2022-11-25T09:41:02;9.70;99.90
18930;DHT22;43305;52.186;5.598;2022-11-25T09:43:39;9.70;99.90
18930;DHT22;43305;52.186;5.598;2022-11-25T09:46:38;9.70;99.90
18930;DHT22;43305;52.186;5.598;2022-11-25T09:49:24;9.80;99.90
18930;DHT22;43305;52.186;5.598;2022-11-25T09:52:02;9.70;99.90
18930;DHT22;43305;52.186;5.598;2022-11-25T09:54:36;9.80;99.90
18930;DHT22;43305;52.186;5.598;2022-11-25T09:57:15;9.80;99.90
18930;DHT22;43305;52.186;5.598;2022-11-25T09:59:48;9.70;99.90
18930;DHT22;43305;52.186;5.598;2022-11-25T10:02:25;9.70;99.90
18930;DHT22;43305;52.186;5.598;2022-11-25T10:04:58;9.80;99.90
18930;DHT22;43305;52.186;5.598;2022-11-25T10:07:38;9.90;99.90
18930;DHT22;43305;52.186;5.598;2022-11-25T10:10:09;9.90;99.90
18930;DHT22;43305;52.186;5.598;2022-11-25T10:12:42;10.00;99.90
18930;DHT22;43305;52.186;5.598;2022-11-25T10:15:16;10.10;99.90
18930;DHT22;43305;52.186;5.598;2022-11-25T10:17:47;10.30;99.90
18930;DHT22;43305;52.186;5.598;2022-11-25T10:20:20;10.40;99.90
18930;DHT22;43305;52.186;5.598;2022-11-25T10:22:48;10.60;99.90
18930;DHT22;43305;52.186;5.598;2022-11-25T10:25:18;10.80;99.90
18930;DHT22;43305;52.186;5.598;2022-11-25T10:27:49;11.00;99.90
18930;DHT22;43305;52.186;5.598;2022-11-25T10:30:19;11.10;99.90
18930;DHT22;43305;52.186;5.598;2022-11-25T10:32:52;11.10;99.90
18930;DHT22;43305;52.186;5.598;2022-11-25T10:35:25;11.00;99.90
18930;DHT22;43305;52.186;5.598;2022-11-25T10:37:56;11.00;99.90
18930;DHT22;43305;52.186;5.598;2022-11-25T10:40:24;11.10;99.90
18930;DHT22;43305;52.186;5.598;2022-11-25T10:42:50;11.10;99.90
18930;DHT22;43305;52.186;5.598;2022-11-25T10:45:24;11.00;99.90
18930;DHT22;43305;52.186;5.598;2022-11-25T10:48:05;11.10;99.90
18930;DHT22;43305;52.186;5.598;2022-11-25T10:50:40;11.20;99.90
18930;DHT22;43305;52.186;5.598;2022-11-25T10:53:16;11.40;99.90
18930;DHT22;43305;52.186;5.598;2022-11-25T10:55:59;11.60;99.90
18930;DHT22;43305;52.186;5.598;2022-11-25T10:58:36;11.60;99.90
18930;DHT22;43305;52.186;5.598;2022-11-25T11:01:13;11.70;99.90
18930;DHT22;43305;52.186;5.598;2022-11-25T11:03:50;11.60;99.90
18930;DHT22;43305;52.186;5.598;2022-11-25T11:06:34;11.70;99.90
18930;DHT22;43305;52.186;5.598;2022-11-25T11:09:32;11.60;99.90
18930;DHT22;43305;52.186;5.598;2022-11-25T11:12:12;11.60;99.90
18930;DHT22;43305;52.186;5.598;2022-11-25T11:14:43;11.60;99.90
18930;DHT22;43305;52.186;5.598;2022-11-25T11:17:29;11.50;99.90
18930;DHT22;43305;52.186;5.598;2022-11-25T11:20:18;11.60;99.90
18930;DHT22;43305;52.186;5.598;2022-11-25T11:22:53;11.60;99.90
18930;DHT22;43305;52.186;5.598;2022-11-25T11:25:30;11.60;99.90
18930;DHT22;43305;52.186;5.598;2022-11-25T11:28:01;11.50;99.90
18930;DHT22;43305;52.186;5.598;2022-11-25T11:30:30;11.60;99.90
18930;DHT22;43305;52.186;5.598;2022-11-25T11:33:02;11.60;99.90
18930;DHT22;43305;52.186;5.598;2022-11-25T11:35:40;11.60;99.90
18930;DHT22;43305;52.186;5.598;2022-11-25T11:38:22;11.60;99.90
18930;DHT22;43305;52.186;5.598;2022-11-25T11:40:54;11.60;99.90
18930;DHT22;43305;52.186;5.598;2022-11-25T11:43:38;11.70;99.90
18930;DHT22;43305;52.186;5.598;2022-11-25T11:46:23;11.70;99.90
18930;DHT22;43305;52.186;5.598;2022-11-25T11:49:12;11.80;99.90
18930;DHT22;43305;52.186;5.598;2022-11-25T11:51:49;11.70;99.90
18930;DHT22;43305;52.186;5.598;2022-11-25T11:54:26;11.70;99.90
18930;DHT22;43305;52.186;5.598;2022-11-25T11:57:05;11.70;99.90
18930;DHT22;43305;52.186;5.598;2022-11-25T11:59:46;11.80;99.90
18930;DHT22;43305;52.186;5.598;2022-11-25T12:02:30;12.00;99.90
18930;DHT22;43305;52.186;5.598;2022-11-25T12:05:13;12.10;99.90
18930;DHT22;43305;52.186;5.598;2022-11-25T12:07:52;12.20;99.90
18930;DHT22;43305;52.186;5.598;2022-11-25T12:10:27;12.20;99.90
18930;DHT22;43305;52.186;5.598;2022-11-25T12:13:03;12.20;99.90
18930;DHT22;43305;52.186;5.598;2022-11-25T12:15:40;12.40;99.90
18930;DHT22;43305;52.186;5.598;2022-11-25T12:18:23;12.40;99.90
18930;DHT22;43305;52.186;5.598;2022-11-25T12:21:05;12.60;99.90
18930;DHT22;43305;52.186;5.598;2022-11-25T12:23:43;12.40;99.90
18930;DHT22;43305;52.186;5.598;2022-11-25T12:26:25;12.50;99.90
18930;DHT22;43305;52.186;5.598;2022-11-25T12:29:00;12.60;99.90
18930;DHT22;43305;52.186;5.598;2022-11-25T12:31:37;12.50;99.90
18930;DHT22;43305;52.186;5.598;2022-11-25T12:34:11;12.40;99.90
18930;DHT22;43305;52.186;5.598;2022-11-25T12:36:43;12.40;99.90
18930;DHT22;43305;52.186;5.598;2022-11-25T12:39:19;12.40;99.90
18930;DHT22;43305;52.186;5.598;2022-11-25T12:41:52;12.50;99.90
18930;DHT22;43305;52.186;5.598;2022-11-25T12:44:26;12.50;99.90
18930;DHT22;43305;52.186;5.598;2022-11-25T12:46:58;12.50;99.90
18930;DHT22;43305;52.186;5.598;2022-11-25T12:49:39;12.50;99.90
18930;DHT22;43305;52.186;5.598;2022-11-25T12:52:28;12.40;99.90
18930;DHT22;43305;52.186;5.598;2022-11-25T12:55:09;12.50;99.90
18930;DHT22;43305;52.186;5.598;2022-11-25T12:57:57;12.60;99.90
18930;DHT22;43305;52.186;5.598;2022-11-25T13:00:46;12.60;99.90
18930;DHT22;43305;52.186;5.598;2022-11-25T13:03:39;12.40;99.90
18930;DHT22;43305;52.186;5.598;2022-11-25T13:06:27;12.60;99.90
18930;DHT22;43305;52.186;5.598;2022-11-25T13:09:13;12.70;99.90
18930;DHT22;43305;52.186;5.598;2022-11-25T13:12:02;12.80;99.90
18930;DHT22;43305;52.186;5.598;2022-11-25T13:14:53;13.40;99.90
18930;DHT22;43305;52.186;5.598;2022-11-25T13:17:36;13.60;99.90
18930;DHT22;43305;52.186;5.598;2022-11-25T13:23:28;13.80;99.90
18930;DHT22;43305;52.186;5.598;2022-11-25T13:29:00;14.20;99.90
18930;DHT22;43305;52.186;5.598;2022-11-25T13:31:53;14.30;99.90
18930;DHT22;43305;52.186;5.598;2022-11-25T13:34:27;14.40;99.90
18930;DHT22;43305;52.186;5.598;2022-11-25T13:36:59;14.50;99.90
18930;DHT22;43305;52.186;5.598;2022-11-25T13:39:30;14.60;99.90
18930;DHT22;43305;52.186;5.598;2022-11-25T13:42:11;14.40;99.90
18930;DHT22;43305;52.186;5.598;2022-11-25T13:44:52;14.10;99.90
18930;DHT22;43305;52.186;5.598;2022-11-25T13:47:30;13.80;99.90
18930;DHT22;43305;52.186;5.598;2022-11-25T13:50:04;13.60;99.90
18930;DHT22;43305;52.186;5.598;2022-11-25T13:52:35;13.30;99.90
18930;DHT22;43305;52.186;5.598;2022-11-25T13:58:02;12.80;99.90
18930;DHT22;43305;52.186;5.598;2022-11-25T14:00:47;12.70;99.90
18930;DHT22;43305;52.186;5.598;2022-11-25T14:03:40;12.50;99.90
18930;DHT22;43305;52.186;5.598;2022-11-25T14:06:16;12.40;99.90
18930;DHT22;43305;52.186;5.598;2022-11-25T14:08:52;12.30;99.90
18930;DHT22;43305;52.186;5.598;2022-11-25T14:11:38;12.20;99.90
18930;DHT22;43305;52.186;5.598;2022-11-25T14:14:24;12.10;99.90
18930;DHT22;43305;52.186;5.598;2022-11-25T14:17:12;12.10;99.90
18930;DHT22;43305;52.186;5.598;2022-11-25T14:19:59;12.10;99.90
18930;DHT22;43305;52.186;5.598;2022-11-25T14:22:41;11.90;99.90
18930;DHT22;43305;52.186;5.598;2022-11-25T14:25:20;11.90;99.90
18930;DHT22;43305;52.186;5.598;2022-11-25T14:27:53;11.80;99.90
18930;DHT22;43305;52.186;5.598;2022-11-25T14:30:23;11.80;99.90
18930;DHT22;43305;52.186;5.598;2022-11-25T14:32:56;11.70;99.90
18930;DHT22;43305;52.186;5.598;2022-11-25T14:35:31;11.70;99.90
18930;DHT22;43305;52.186;5.598;2022-11-25T14:38:03;11.60;99.90
18930;DHT22;43305;52.186;5.598;2022-11-25T14:40:37;11.50;99.90
18930;DHT22;43305;52.186;5.598;2022-11-25T14:43:16;11.40;99.90
18930;DHT22;43305;52.186;5.598;2022-11-25T14:45:44;11.40;99.90
18930;DHT22;43305;52.186;5.598;2022-11-25T14:48:14;11.30;99.90
18930;DHT22;43305;52.186;5.598;2022-11-25T14:50:53;11.30;99.90
18930;DHT22;43305;52.186;5.598;2022-11-25T14:53:20;11.20;99.90
18930;DHT22;43305;52.186;5.598;2022-11-25T14:55:47;11.10;99.90
18930;DHT22;43305;52.186;5.598;2022-11-25T14:58:15;11.00;99.90
18930;DHT22;43305;52.186;5.598;2022-11-25T15:00:51;11.00;99.90
18930;DHT22;43305;52.186;5.598;2022-11-25T15:03:19;11.00;99.90
18930;DHT22;43305;52.186;5.598;2022-11-25T15:05:53;10.90;99.90
18930;DHT22;43305;52.186;5.598;2022-11-25T15:08:22;10.90;99.90
18930;DHT22;43305;52.186;5.598;2022-11-25T15:10:51;10.80;99.90
18930;DHT22;43305;52.186;5.598;2022-11-25T15:13:26;10.80;99.90
18930;DHT22;43305;52.186;5.598;2022-11-25T15:15:57;10.80;99.90
18930;DHT22;43305;52.186;5.598;2022-11-25T15:18:26;10.70;99.90
18930;DHT22;43305;52.186;5.598;2022-11-25T15:20:56;10.70;99.90
18930;DHT22;43305;52.186;5.598;2022-11-25T15:23:27;10.60;99.90
18930;DHT22;43305;52.186;5.598;2022-11-25T15:25:56;10.60;99.90
18930;DHT22;43305;52.186;5.598;2022-11-25T15:28:23;10.50;99.90
18930;DHT22;43305;52.186;5.598;2022-11-25T15:30:58;10.50;99.90
18930;DHT22;43305;52.186;5.598;2022-11-25T15:33:27;10.40;99.90
18930;DHT22;43305;52.186;5.598;2022-11-25T15:35:54;10.40;99.90
18930;DHT22;43305;52.186;5.598;2022-11-25T15:38:35;10.30;99.90
18930;DHT22;43305;52.186;5.598;2022-11-25T15:41:02;10.30;99.90
18930;DHT22;43305;52.186;5.598;2022-11-25T15:43:30;10.20;99.90
18930;DHT22;43305;52.186;5.598;2022-11-25T15:46:00;10.20;99.90
18930;DHT22;43305;52.186;5.598;2022-11-25T15:48:31;10.10;99.90
18930;DHT22;43305;52.186;5.598;2022-11-25T15:51:01;10.00;99.90
18930;DHT22;43305;52.186;5.598;2022-11-25T15:53:29;10.00;99.90
18930;DHT22;43305;52.186;5.598;2022-11-25T15:56:02;10.00;99.90
18930;DHT22;43305;52.186;5.598;2022-11-25T15:58:30;9.90;99.90
18930;DHT22;43305;52.186;5.598;2022-11-25T16:01:01;9.90;99.90
18930;DHT22;43305;52.186;5.598;2022-11-25T16:03:30;9.80;99.90
18930;DHT22;43305;52.186;5.598;2022-11-25T16:05:58;9.80;99.90
18930;DHT22;43305;52.186;5.598;2022-11-25T16:08:30;9.80;99.90
18930;DHT22;43305;52.186;5.598;2022-11-25T16:10:58;9.70;99.90
18930;DHT22;43305;52.186;5.598;2022-11-25T16:13:27;9.70;99.90
18930;DHT22;43305;52.186;5.598;2022-11-25T16:15:57;9.60;99.90
18930;DHT22;43305;52.186;5.598;2022-11-25T16:18:31;9.60;99.90